createdAt,value
2023-01-21T00:00:40.943Z,101698.91
2023-01-21T00:03:07.407Z,101703.50
2023-01-21T00:05:34.212Z,101719.03
2023-01-21T00:08:02.640Z,101705.97
2023-01-21T00:10:29.202Z,101692.06
2023-01-21T00:12:55.545Z,101719.66
2023-01-21T00:15:21.961Z,101708.97
2023-01-21T00:17:48.321Z,101717.75
2023-01-21T00:20:15.369Z,101635.97
2023-01-21T00:22:41.955Z,101698.56
2023-01-21T00:25:08.706Z,101707.75
2023-01-21T00:27:35.073Z,101754.81
2023-01-21T00:30:01.512Z,101736.25
2023-01-21T00:32:27.842Z,101730.69
2023-01-21T00:34:54.433Z,101702.31
2023-01-21T00:37:21.002Z,101680.22
2023-01-21T00:39:47.325Z,101741.53
2023-01-21T00:42:13.665Z,101762.34
2023-01-21T00:44:40.569Z,101702.66
2023-01-21T00:47:07.529Z,101646.78
2023-01-21T00:49:33.943Z,101687.41
2023-01-21T00:52:00.439Z,101656.22
2023-01-21T00:54:26.814Z,101722.13
2023-01-21T00:56:53.198Z,101738.25
2023-01-21T00:59:19.639Z,101783.47
2023-01-21T01:01:46.081Z,101782.13
2023-01-21T01:04:12.595Z,101819.63
2023-01-21T01:06:39.009Z,101781.38
2023-01-21T01:09:05.388Z,101777.34
2023-01-21T01:11:31.861Z,101820.81
2023-01-21T01:13:59.218Z,101795.19
2023-01-21T01:16:26.249Z,101833.81
2023-01-21T01:18:52.696Z,101817.84
2023-01-21T01:21:20.704Z,101817.50
2023-01-21T01:23:47.652Z,101820.56
2023-01-21T01:26:16.972Z,101846.88
2023-01-21T01:28:43.635Z,101847.91
2023-01-21T01:31:14.290Z,101842.59
2023-01-21T01:33:41.051Z,101855.81
2023-01-21T01:36:11.821Z,101825.56
2023-01-21T01:38:39.245Z,101776.13
2023-01-21T01:41:06.285Z,101859.19
2023-01-21T01:43:59.564Z,101874.31
2023-01-21T01:46:28.710Z,101880.38
2023-01-21T01:49:03.901Z,101869.06
2023-01-21T01:51:39.646Z,101849.91
2023-01-21T01:54:07.882Z,101765.00
2023-01-21T01:56:38.361Z,101892.09
2023-01-21T01:59:05.004Z,101873.84
2023-01-21T02:01:31.603Z,101832.69
2023-01-21T02:04:01.246Z,101890.00
2023-01-21T02:06:27.861Z,101842.97
2023-01-21T02:08:55.888Z,101874.59
2023-01-21T02:11:22.524Z,101887.00
2023-01-21T02:13:53.517Z,101760.97
2023-01-21T02:16:32.193Z,101869.94
2023-01-21T02:19:31.069Z,101913.63
2023-01-21T02:22:00.876Z,101917.88
2023-01-21T02:24:36.400Z,101918.94
2023-01-21T02:27:30.232Z,101930.06
2023-01-21T02:30:00.280Z,101926.78
2023-01-21T02:32:32.563Z,101929.81
2023-01-21T02:35:41.190Z,101945.28
2023-01-21T02:38:29.957Z,101941.75
2023-01-21T02:41:16.061Z,101923.84
2023-01-21T02:43:56.046Z,101951.75
2023-01-21T02:46:31.118Z,101910.53
2023-01-21T02:49:08.938Z,101949.19
2023-01-21T02:51:35.570Z,101863.53
2023-01-21T02:54:13.449Z,101946.88
2023-01-21T02:56:39.955Z,101943.38
2023-01-21T02:59:06.561Z,101905.44
2023-01-21T03:01:49.170Z,101968.53
2023-01-21T03:04:32.611Z,101965.22
2023-01-21T03:07:22.692Z,101968.53
2023-01-21T03:09:49.320Z,101955.88
2023-01-21T03:12:41.706Z,101932.44
2023-01-21T03:15:34.851Z,101975.78
2023-01-21T03:18:07.217Z,101950.66
2023-01-21T03:20:45.407Z,101959.38
2023-01-21T03:23:20.746Z,101948.56
2023-01-21T03:25:49.969Z,101982.09
2023-01-21T03:28:22.598Z,101956.38
2023-01-21T03:30:55.344Z,101974.22
2023-01-21T03:33:22.680Z,101987.22
2023-01-21T03:35:53.509Z,101979.56
2023-01-21T03:38:26.994Z,101950.06
2023-01-21T03:40:56.363Z,101989.16
2023-01-21T03:43:23.031Z,101997.16
2023-01-21T03:45:51.759Z,101976.56
2023-01-21T03:48:54.775Z,102007.69
2023-01-21T03:51:46.218Z,102012.06
2023-01-21T03:54:12.801Z,102014.59
2023-01-21T03:56:42.213Z,101986.59
2023-01-21T03:59:08.536Z,101895.63
2023-01-21T04:01:34.877Z,101945.44
2023-01-21T04:04:01.200Z,101977.66
2023-01-21T04:06:27.576Z,101993.00
2023-01-21T04:08:53.977Z,101943.56
2023-01-21T04:11:20.296Z,101995.53
2023-01-21T04:13:46.665Z,101991.25
2023-01-21T04:16:13.015Z,101956.88
2023-01-21T04:18:39.408Z,102009.59
2023-01-21T04:21:05.782Z,102017.88
2023-01-21T04:23:32.290Z,102009.84
2023-01-21T04:25:58.638Z,101975.94
2023-01-21T04:28:24.985Z,101929.75
2023-01-21T04:30:51.304Z,101897.59
2023-01-21T04:33:17.755Z,102002.31
2023-01-21T04:35:44.173Z,101996.50
2023-01-21T04:38:11.467Z,102048.53
2023-01-21T04:40:37.797Z,102002.03
2023-01-21T04:43:04.161Z,102048.75
2023-01-21T04:45:30.729Z,102040.72
2023-01-21T04:47:57.189Z,102038.75
2023-01-21T04:50:23.560Z,102036.31
2023-01-21T04:52:49.887Z,102037.53
2023-01-21T04:55:16.381Z,102027.97
2023-01-21T04:57:42.852Z,102006.59
2023-01-21T05:00:09.762Z,101994.53
2023-01-21T05:02:36.260Z,102069.56
2023-01-21T05:05:02.735Z,102045.69
2023-01-21T05:07:29.209Z,102065.41
2023-01-21T05:09:55.606Z,102057.59
2023-01-21T05:12:21.943Z,101937.91
2023-01-21T05:14:48.281Z,101973.88
2023-01-21T05:17:14.634Z,102058.69
2023-01-21T05:19:40.954Z,101980.44
2023-01-21T05:22:07.265Z,102040.31
2023-01-21T05:24:34.090Z,102035.22
2023-01-21T05:27:01.113Z,102087.47
2023-01-21T05:29:27.452Z,102061.44
2023-01-21T05:31:53.848Z,102060.13
2023-01-21T05:34:20.230Z,102064.56
2023-01-21T05:36:46.596Z,102058.00
2023-01-21T05:39:12.995Z,102042.59
2023-01-21T05:41:39.321Z,102075.84
2023-01-21T05:44:05.903Z,101994.69
2023-01-21T05:46:32.699Z,102045.50
2023-01-21T05:48:59.042Z,102081.91
2023-01-21T05:51:25.450Z,102050.13
2023-01-21T05:53:51.858Z,102081.78
2023-01-21T05:56:18.225Z,102070.34
2023-01-21T05:58:44.551Z,102128.38
2023-01-21T06:01:10.918Z,102031.03
2023-01-21T06:03:38.097Z,102051.06
2023-01-21T06:06:04.810Z,102062.03
2023-01-21T06:08:31.208Z,102119.81
2023-01-21T06:10:57.551Z,102108.63
2023-01-21T06:13:24.455Z,102080.22
2023-01-21T06:15:54.363Z,102151.41
2023-01-21T06:18:20.745Z,102025.66
2023-01-21T06:20:47.067Z,101995.78
2023-01-21T06:23:13.470Z,102140.63
2023-01-21T06:25:40.778Z,102098.47
2023-01-21T06:28:08.637Z,102178.09
2023-01-21T06:30:34.976Z,102035.94
2023-01-21T06:33:01.319Z,102161.97
2023-01-21T06:35:27.655Z,102091.97
2023-01-21T06:37:53.999Z,102166.16
2023-01-21T06:40:20.384Z,102165.97
2023-01-21T06:42:47.735Z,102180.78
2023-01-21T06:45:14.665Z,102181.47
2023-01-21T06:47:45.015Z,102183.75
2023-01-21T06:50:16.859Z,102190.19
2023-01-21T06:52:44.775Z,102205.44
2023-01-21T06:55:11.206Z,102176.88
2023-01-21T06:57:38.087Z,102173.63
2023-01-21T07:00:05.127Z,102109.84
2023-01-21T07:02:31.670Z,102166.16
2023-01-21T07:04:59.183Z,102099.94
2023-01-21T07:07:25.942Z,102189.78
2023-01-21T07:09:52.307Z,102149.47
2023-01-21T07:12:18.709Z,102206.06
2023-01-21T07:14:45.109Z,102174.09
2023-01-21T07:17:11.478Z,102120.09
2023-01-21T07:19:37.850Z,102220.25
2023-01-21T07:22:04.405Z,102034.44
2023-01-21T07:24:30.740Z,102244.41
2023-01-21T07:26:57.135Z,102200.22
2023-01-21T07:29:24.163Z,102222.81
2023-01-21T07:31:51.308Z,102243.69
2023-01-21T07:34:17.946Z,102057.31
2023-01-21T07:36:44.331Z,102241.91
2023-01-21T07:39:10.638Z,102224.72
2023-01-21T07:41:37.003Z,102202.88
2023-01-21T07:44:03.386Z,102156.94
2023-01-21T07:46:29.924Z,102241.03
2023-01-21T07:48:56.335Z,102261.00
2023-01-21T07:51:23.240Z,102195.53
2023-01-21T07:53:49.676Z,102202.22
2023-01-21T07:56:18.009Z,102237.88
2023-01-21T07:58:44.434Z,102258.53
2023-01-21T08:01:10.749Z,102255.28
2023-01-21T08:03:37.744Z,102250.44
2023-01-21T08:06:07.292Z,102267.47
2023-01-21T08:08:34.290Z,102293.03
2023-01-21T08:11:00.685Z,102264.56
2023-01-21T08:13:27.029Z,102308.41
2023-01-21T08:15:55.647Z,102303.75
2023-01-21T08:18:23.657Z,102304.00
2023-01-21T08:20:58.065Z,102260.19
2023-01-21T08:23:25.712Z,102307.41
2023-01-21T08:25:52.208Z,102194.13
2023-01-21T08:28:18.701Z,102205.78
2023-01-21T08:30:45.108Z,102260.53
2023-01-21T08:33:11.528Z,102203.88
2023-01-21T08:35:38.023Z,102332.09
2023-01-21T08:38:04.455Z,102210.50
2023-01-21T08:40:30.989Z,102332.25
2023-01-21T08:42:59.460Z,102320.03
2023-01-21T08:45:26.941Z,102334.41
2023-01-21T08:47:53.389Z,102270.69
2023-01-21T08:53:13.472Z,102316.88
2023-01-21T08:55:40.061Z,102331.06
2023-01-21T08:58:06.395Z,102281.53
2023-01-21T09:00:32.828Z,102287.34
2023-01-21T09:02:59.663Z,102297.69
2023-01-21T09:05:26.180Z,102312.03
2023-01-21T09:07:52.589Z,102255.84
2023-01-21T09:10:38.179Z,102245.09
2023-01-21T09:13:05.812Z,102316.47
2023-01-21T09:15:32.314Z,102339.31
2023-01-21T09:17:59.166Z,102337.50
2023-01-21T09:20:26.093Z,102357.00
2023-01-21T09:22:52.442Z,102382.97
2023-01-21T09:25:20.952Z,102400.88
2023-01-21T09:27:48.487Z,102340.88
2023-01-21T09:30:15.310Z,102391.09
2023-01-21T09:32:41.890Z,102388.31
2023-01-21T09:35:08.747Z,102333.34
2023-01-21T09:37:35.363Z,102346.50
2023-01-21T09:40:01.854Z,102413.84
2023-01-21T09:42:33.484Z,102265.97
2023-01-21T09:45:04.423Z,102411.84
2023-01-21T09:47:40.149Z,102275.63
2023-01-21T09:50:25.182Z,102435.34
2023-01-21T09:53:04.519Z,102437.22
2023-01-21T09:55:49.041Z,102451.19
2023-01-21T09:58:15.299Z,102452.16
2023-01-21T10:00:58.781Z,102419.31
2023-01-21T10:03:46.866Z,102399.41
2023-01-21T10:06:28.666Z,102449.44
2023-01-21T10:09:28.321Z,102378.19
2023-01-21T10:12:18.025Z,102457.63
2023-01-21T10:15:04.595Z,102434.06
2023-01-21T10:17:44.590Z,102460.06
2023-01-21T10:20:31.838Z,102431.00
2023-01-21T10:23:12.143Z,102441.97
2023-01-21T10:25:40.093Z,102400.00
2023-01-21T10:28:14.289Z,102449.16
2023-01-21T10:30:48.201Z,102351.06
2023-01-21T10:33:22.159Z,102456.66
2023-01-21T10:36:14.881Z,102356.75
2023-01-21T10:38:44.630Z,102423.28
2023-01-21T10:41:37.977Z,102369.25
2023-01-21T10:44:50.603Z,102413.53
2023-01-21T10:47:19.945Z,102444.13
2023-01-21T10:50:02.680Z,102452.47
2023-01-21T10:52:38.602Z,102379.75
2023-01-21T10:55:42.702Z,102445.56
2023-01-21T10:58:18.090Z,102453.63
2023-01-21T11:00:48.525Z,102388.78
2023-01-21T11:03:26.089Z,102368.59
2023-01-21T11:05:52.662Z,102412.81
2023-01-21T11:08:22.488Z,102361.34
2023-01-21T11:10:55.369Z,102327.63
2023-01-21T11:13:23.023Z,102447.41
2023-01-21T11:15:54.602Z,102367.44
2023-01-21T11:18:37.976Z,102447.03
2023-01-21T11:21:20.919Z,102427.16
2023-01-21T11:23:58.655Z,102442.66
2023-01-21T11:26:33.040Z,102396.94
2023-01-21T11:29:27.281Z,102332.50
2023-01-21T11:32:31.014Z,102395.91
2023-01-21T11:35:19.911Z,102370.00
2023-01-21T11:37:46.443Z,102394.03
2023-01-21T11:40:23.782Z,102385.31
2023-01-21T11:42:53.328Z,102376.19
2023-01-21T11:45:29.581Z,102410.94
2023-01-21T11:47:56.900Z,102466.03
2023-01-21T11:50:30.385Z,102340.59
2023-01-21T11:53:14.551Z,102382.88
2023-01-21T11:55:42.292Z,102451.97
2023-01-21T11:58:23.999Z,102461.47
2023-01-21T12:00:53.938Z,102362.09
2023-01-21T12:03:25.173Z,102341.06
2023-01-21T12:05:53.320Z,102366.56
2023-01-21T12:08:25.252Z,102353.03
2023-01-21T12:10:54.640Z,102410.47
2023-01-21T12:13:36.015Z,102463.44
2023-01-21T12:16:06.033Z,102459.22
2023-01-21T12:19:05.306Z,102446.66
2023-01-21T12:21:40.591Z,102446.84
2023-01-21T12:24:31.400Z,102418.19
2023-01-21T12:27:19.501Z,102436.72
2023-01-21T12:30:04.768Z,102438.97
2023-01-21T12:32:33.437Z,102383.03
2023-01-21T12:35:17.202Z,102427.84
2023-01-21T12:37:51.146Z,102359.78
2023-01-21T12:40:24.647Z,102337.50
2023-01-21T12:42:59.661Z,102383.59
2023-01-21T12:45:36.150Z,102364.56
2023-01-21T12:48:25.604Z,102352.69
2023-01-21T12:51:04.519Z,102376.47
2023-01-21T12:53:39.856Z,102439.34
2023-01-21T12:56:20.886Z,102433.94
2023-01-21T12:59:11.548Z,102396.59
2023-01-21T13:02:05.471Z,102436.63
2023-01-21T13:05:17.529Z,102439.00
2023-01-21T13:08:02.906Z,102373.13
2023-01-21T13:10:35.856Z,102433.81
2023-01-21T13:13:12.187Z,102321.53
2023-01-21T13:15:42.255Z,102430.94
2023-01-21T13:18:15.141Z,102378.41
2023-01-21T13:20:49.766Z,102432.56
2023-01-21T13:23:26.439Z,102436.44
2023-01-21T13:26:02.137Z,102353.69
2023-01-21T13:28:38.082Z,102334.84
2023-01-21T13:31:15.752Z,102357.94
2023-01-21T13:33:53.267Z,102428.25
2023-01-21T13:36:41.181Z,102435.03
2023-01-21T13:39:37.294Z,102438.56
2023-01-21T13:42:32.492Z,102367.66
2023-01-21T13:45:22.557Z,102446.91
2023-01-21T13:48:02.009Z,102445.94
2023-01-21T13:51:14.228Z,102452.78
2023-01-21T13:54:11.311Z,102444.00
2023-01-21T13:56:43.856Z,102416.44
2023-01-21T13:59:31.285Z,102445.34
2023-01-21T14:02:03.593Z,102380.66
2023-01-21T14:05:03.235Z,102382.75
2023-01-21T14:07:46.253Z,102377.59
2023-01-21T14:10:33.539Z,102397.88
2023-01-21T14:13:21.605Z,102456.69
2023-01-21T14:16:15.791Z,102454.41
2023-01-21T14:19:06.706Z,102353.88
2023-01-21T14:21:56.027Z,102463.63
2023-01-21T14:24:39.451Z,102457.75
2023-01-21T14:27:19.751Z,102356.56
2023-01-21T14:30:30.875Z,102464.53
2023-01-21T14:33:03.743Z,102400.34
2023-01-21T14:36:20.832Z,102456.91
2023-01-21T14:39:17.851Z,102432.06
2023-01-21T14:42:02.584Z,102462.06
2023-01-21T14:44:44.464Z,102455.94
2023-01-21T14:47:15.128Z,102412.22
2023-01-21T14:49:53.082Z,102367.78
2023-01-21T14:52:27.210Z,102403.16
2023-01-21T14:54:53.717Z,102386.06
2023-01-21T14:57:40.582Z,102398.44
2023-01-21T15:00:28.132Z,102449.56
2023-01-21T15:03:13.401Z,102427.25
2023-01-21T15:05:42.945Z,102380.78
2023-01-21T15:08:14.790Z,102389.34
2023-01-21T15:10:41.341Z,102459.91
2023-01-21T15:13:37.135Z,102458.97
2023-01-21T15:16:19.122Z,102474.88
2023-01-21T15:19:07.316Z,102390.88
2023-01-21T15:21:37.930Z,102416.25
2023-01-21T15:24:39.524Z,102470.16
2023-01-21T15:27:21.358Z,102472.03
2023-01-21T15:29:53.760Z,102483.13
2023-01-21T15:32:30.663Z,102482.44
2023-01-21T15:35:22.233Z,102490.94
2023-01-21T15:38:00.241Z,102428.97
2023-01-21T15:40:36.752Z,102489.94
2023-01-21T15:43:10.583Z,102496.03
2023-01-21T15:45:51.341Z,102501.06
2023-01-21T15:48:48.426Z,102466.47
2023-01-21T15:51:41.774Z,102413.03
2023-01-21T15:54:38.304Z,102457.09
2023-01-21T15:57:29.527Z,102497.78
2023-01-21T16:00:32.914Z,102495.06
2023-01-21T16:03:27.486Z,102490.47
2023-01-21T16:05:56.932Z,102510.63
2023-01-21T16:08:49.012Z,102409.19
2023-01-21T16:11:42.633Z,102454.34
2023-01-21T16:14:24.594Z,102372.34
2023-01-21T16:17:25.432Z,102449.72
2023-01-21T16:19:56.217Z,102438.38
2023-01-21T16:22:26.948Z,102370.03
2023-01-21T16:24:59.011Z,102430.69
2023-01-21T16:27:28.496Z,102414.25
2023-01-21T16:29:56.588Z,102472.28
2023-01-21T16:32:23.137Z,102402.16
2023-01-21T16:34:49.629Z,102449.38
2023-01-21T16:37:19.110Z,102511.41
2023-01-21T16:39:46.217Z,102515.69
2023-01-21T16:42:37.918Z,102417.84
2023-01-21T16:45:15.288Z,102444.09
2023-01-21T16:47:42.293Z,102446.56
2023-01-21T16:50:19.973Z,102527.56
2023-01-21T16:52:46.797Z,102416.13
2023-01-21T16:55:21.910Z,102482.97
2023-01-21T16:57:50.472Z,102529.66
2023-01-21T17:00:31.845Z,102509.28
2023-01-21T17:03:03.578Z,102497.97
2023-01-21T17:05:37.075Z,102393.69
2023-01-21T17:08:10.949Z,102404.97
2023-01-21T17:10:40.390Z,102482.50
2023-01-21T17:13:13.824Z,102451.47
2023-01-21T17:15:43.222Z,102448.44
2023-01-21T17:18:27.264Z,102536.03
2023-01-21T17:21:02.832Z,102536.78
2023-01-21T17:23:34.305Z,102446.78
2023-01-21T17:26:14.315Z,102468.53
2023-01-21T17:28:46.922Z,102520.84
2023-01-21T17:31:16.479Z,102533.84
2023-01-21T17:33:43.720Z,102526.94
2023-01-21T17:36:13.659Z,102466.06
2023-01-21T17:38:42.818Z,102426.63
2023-01-21T17:41:24.935Z,102474.84
2023-01-21T17:43:55.476Z,102480.91
2023-01-21T17:46:24.134Z,102465.09
2023-01-21T17:48:57.763Z,102407.50
2023-01-21T17:51:30.152Z,102439.50
2023-01-21T17:53:59.859Z,102510.94
2023-01-21T17:56:41.225Z,102470.75
2023-01-21T17:59:28.259Z,102550.41
2023-01-21T18:01:55.793Z,102439.56
2023-01-21T18:04:23.195Z,102464.38
2023-01-21T18:06:52.082Z,102498.38
2023-01-21T18:09:20.146Z,102537.72
2023-01-21T18:11:51.155Z,102551.81
2023-01-21T18:14:22.832Z,102454.06
2023-01-21T18:16:49.263Z,102512.81
2023-01-21T18:19:32.083Z,102554.19
2023-01-21T18:22:00.879Z,102563.34
2023-01-21T18:24:27.737Z,102493.53
2023-01-21T18:26:56.425Z,102467.81
2023-01-21T18:29:27.011Z,102557.25
2023-01-21T18:31:53.608Z,102428.94
2023-01-21T18:34:20.062Z,102495.06
2023-01-21T18:36:46.515Z,102563.28
2023-01-21T18:39:16.167Z,102539.66
2023-01-21T18:41:42.734Z,102566.09
2023-01-21T18:44:10.028Z,102581.88
2023-01-21T18:46:41.465Z,102543.06
2023-01-21T18:49:16.454Z,102523.41
2023-01-21T18:51:43.674Z,102557.88
2023-01-21T18:54:10.828Z,102565.63
2023-01-21T18:56:38.267Z,102406.66
2023-01-21T18:59:22.366Z,102560.09
2023-01-21T19:01:48.935Z,102574.28
2023-01-21T19:04:18.030Z,102545.81
2023-01-21T19:06:55.342Z,102362.72
2023-01-21T19:09:25.480Z,102447.31
2023-01-21T19:11:52.170Z,102486.00
2023-01-21T19:14:18.832Z,102452.38
2023-01-21T19:16:46.078Z,102547.53
2023-01-21T19:19:19.050Z,102563.41
2023-01-21T19:21:46.344Z,102427.16
2023-01-21T19:24:12.776Z,102471.63
2023-01-21T19:26:39.202Z,102562.97
2023-01-21T19:29:15.311Z,102448.59
2023-01-21T19:31:42.013Z,102575.44
2023-01-21T19:34:10.126Z,102556.03
2023-01-21T19:36:36.558Z,102499.66
2023-01-21T19:39:02.912Z,102517.91
2023-01-21T19:41:29.712Z,102544.56
2023-01-21T19:43:56.132Z,102540.88
2023-01-21T19:46:23.814Z,102463.78
2023-01-21T19:48:53.397Z,102523.91
2023-01-21T19:51:20.027Z,102448.72
2023-01-21T19:53:46.607Z,102559.56
2023-01-21T19:56:18.810Z,102552.75
2023-01-21T19:58:45.219Z,102524.88
2023-01-21T20:01:11.677Z,102487.41
2023-01-21T20:03:40.070Z,102525.66
2023-01-21T20:06:12.294Z,102571.53
2023-01-21T20:08:38.642Z,102386.06
2023-01-21T20:11:05.389Z,102550.81
2023-01-21T20:13:36.281Z,102550.72
2023-01-21T20:16:14.260Z,102541.03
2023-01-21T20:18:40.774Z,102550.47
2023-01-21T20:21:07.449Z,102453.59
2023-01-21T20:23:36.457Z,102557.63
2023-01-21T20:26:07.311Z,102567.56
2023-01-21T20:28:39.637Z,102575.19
2023-01-21T20:31:08.198Z,102564.84
2023-01-21T20:33:35.830Z,102566.22
2023-01-21T20:36:07.274Z,102464.94
2023-01-21T20:38:35.447Z,102525.91
2023-01-21T20:41:03.860Z,102562.28
2023-01-21T20:43:31.440Z,102400.47
2023-01-21T20:46:01.506Z,102562.22
2023-01-21T20:48:34.841Z,102531.78
2023-01-21T20:51:02.347Z,102545.06
2023-01-21T20:53:30.730Z,102443.28
2023-01-21T20:55:58.800Z,102543.53
2023-01-21T20:58:26.212Z,102451.84
2023-01-21T21:00:52.799Z,102543.66
2023-01-21T21:03:19.283Z,102517.22
2023-01-21T21:05:47.533Z,102518.78
2023-01-21T21:08:17.150Z,102498.22
2023-01-21T21:10:44.339Z,102547.97
2023-01-21T21:13:12.527Z,102499.84
2023-01-21T21:15:39.753Z,102529.94
2023-01-21T21:18:06.774Z,102526.94
2023-01-21T21:20:36.885Z,102512.69
2023-01-21T21:23:04.286Z,102528.06
2023-01-21T21:25:37.125Z,102528.94
2023-01-21T21:28:03.573Z,102402.84
2023-01-21T21:30:32.904Z,102507.53
2023-01-21T21:33:01.016Z,102428.34
2023-01-21T21:35:29.749Z,102409.53
2023-01-21T21:38:01.157Z,102516.59
2023-01-21T21:40:31.708Z,102526.94
2023-01-21T21:43:17.134Z,102529.81
2023-01-21T21:46:02.560Z,102543.38
2023-01-21T21:48:39.176Z,102525.03
2023-01-21T21:51:06.541Z,102540.78
2023-01-21T21:53:33.091Z,102460.03
2023-01-21T21:56:07.646Z,102336.28
2023-01-21T21:58:37.247Z,102501.34
2023-01-21T22:01:16.005Z,102482.91
2023-01-21T22:03:43.105Z,102540.09
2023-01-21T22:06:10.500Z,102519.75
2023-01-21T22:08:44.646Z,102486.09
2023-01-21T22:11:20.780Z,102479.06
2023-01-21T22:13:50.263Z,102497.69
2023-01-21T22:16:19.584Z,102298.69
2023-01-21T22:18:46.239Z,102332.91
2023-01-21T22:21:19.860Z,102507.78
2023-01-21T22:23:46.995Z,102365.72
2023-01-21T22:26:17.372Z,102505.66
2023-01-21T22:28:44.523Z,102382.69
2023-01-21T22:31:20.502Z,102511.25
2023-01-21T22:33:47.403Z,102411.81
2023-01-21T22:36:16.821Z,102432.56
2023-01-21T22:38:43.516Z,102521.97
2023-01-21T22:41:12.159Z,102506.78
2023-01-21T22:43:41.756Z,102509.63
2023-01-21T22:46:10.972Z,102403.31
2023-01-21T22:48:37.495Z,102428.06
2023-01-21T22:51:04.092Z,102396.13
2023-01-21T22:53:30.733Z,102421.03
2023-01-21T22:55:59.199Z,102392.84
2023-01-21T22:58:26.934Z,102386.47
2023-01-21T23:00:54.267Z,102519.00
2023-01-21T23:03:21.710Z,102393.72
2023-01-21T23:05:48.161Z,102519.41
2023-01-21T23:08:15.101Z,102518.50
2023-01-21T23:10:42.588Z,102497.13
2023-01-21T23:13:09.797Z,102458.28
2023-01-21T23:15:36.858Z,102401.59
2023-01-21T23:18:03.313Z,102428.13
2023-01-21T23:20:29.750Z,102508.53
2023-01-21T23:22:56.423Z,102387.47
2023-01-21T23:25:23.087Z,102284.75
2023-01-21T23:27:49.644Z,102374.13
2023-01-21T23:30:18.194Z,102484.50
2023-01-21T23:32:44.850Z,102452.56
2023-01-21T23:35:11.387Z,102520.09
2023-01-21T23:37:40.943Z,102348.81
2023-01-21T23:40:08.237Z,102387.56
2023-01-21T23:42:34.769Z,102366.31
2023-01-21T23:45:01.123Z,102357.22
2023-01-21T23:47:28.341Z,102491.63
2023-01-21T23:49:54.728Z,102412.25
2023-01-21T23:52:21.116Z,102467.59
2023-01-21T23:54:47.571Z,102475.34
2023-01-21T23:57:14.061Z,102407.66
2023-01-21T23:59:40.485Z,102420.41
